M/V Vinh_hung — XVFL — position and weather

sailwx.info

Track history (hours):
 
Tides and Currents Weather Stations Pressure Air Temp Water Temp Dewpoint Dewpoint Depression Visibility Wind Speed Wind Dir Waves Ship Positions

M/V Vinh_hung

Last reported at 2014-Jun-08 04:27 UTC. Time now 2014-Jul-24 05:54 UTC.
Position N 29°33' E 122°48'.
Warning: this ship's position is 46 days out of date.

; draft 7.5 m.

Type: Cargo ship. MMSI: 574206000.

Date/timePositionNaut miles runAvg speedWind from/ knotsBaromVisibWave heightAir tempDewpointWater temp
2014-Jun-08 04:27N 29°33' E 122°48'20 9.9
2014-Jun-08 02:28N 29°51' E 122°57'38 9.2
2014-Jun-07 22:22N 30°29' E 123°02'21 9.0
2014-Jun-07 20:03N 30°48' E 122°54'65 8.5
2014-Jun-07 12:24N 31°18' E 121°46'7 8.3
2014-Jun-07 11:33N 31°21' E 121°39'8 7.9
2014-Jun-07 10:33N 31°25' E 121°31'8 8.3
2014-Jun-07 09:33N 31°31' E 121°23'1210.0
2014-Jun-07 08:20N 31°39' E 121°13'1211.3
2014-Jun-07 07:14N 31°46' E 121°01'1010.4
2014-Jun-07 06:17N 31°53' E 120°53'811.1
2014-Jun-07 05:33N 32°00' E 120°48'1111.4
2014-Jun-07 04:33N 32°00' E 120°34'7 7.4
2014-Jun-07 03:33N 31°58' E 120°26'1 1.1
2014-Jun-07 02:10N 31°58' E 120°24'0 0.0
2014-Jun-07 01:32N 31°58' E 120°24'0 0.0
2014-Jun-07 00:31N 31°58' E 120°24'0 0.0
2014-Jun-06 23:31N 31°58' E 120°24'0 0.0
2014-Jun-06 22:31N 31°58' E 120°24'0 0.0
2014-Jun-06 21:33N 31°58' E 120°24'0 0.0
2014-Jun-06 20:33N 31°58' E 120°24'0 0.0
2014-Jun-06 19:30N 31°58' E 120°24'0 0.0
2014-Jun-06 18:30N 31°58' E 120°24'0 0.0
2014-Jun-06 17:33N 31°58' E 120°24'0 0.0
2014-Jun-06 16:30N 31°58' E 120°24'0 0.0
2014-Jun-06 15:30N 31°58' E 120°24'0 0.0
2014-Jun-06 14:30N 31°58' E 120°24'0 0.0
2014-Jun-06 13:31N 31°58' E 120°24'0 0.0
2014-Jun-06 12:32N 31°58' E 120°24'0 0.0
2014-Jun-06 11:32N 31°58' E 120°24'0 0.0
2014-Jun-06 10:31N 31°58' E 120°24'0 0.0
2014-Jun-06 09:31N 31°58' E 120°24'0 0.0
2014-Jun-06 08:31N 31°58' E 120°24'0 0.0
2014-Jun-06 07:28N 31°58' E 120°24'0 0.0
2014-Jun-06 06:31N 31°58' E 120°24'0 0.0
2014-Jun-06 05:31N 31°58' E 120°24'0 0.0
2014-Jun-06 04:31N 31°58' E 120°24'0 0.0
2014-Jun-06 03:26N 31°58' E 120°24'0 0.0
2014-Jun-06 02:33N 31°58' E 120°24'0 0.0
2014-Jun-06 01:21N 31°58' E 120°24'0 0.0
2014-Jun-06 00:29N 31°58' E 120°24'0 0.0
2014-Jun-05 23:30N 31°58' E 120°24'0 0.0
2014-Jun-05 22:33N 31°58' E 120°24'0 0.0
2014-Jun-05 21:33N 31°58' E 120°24'0 0.0
2014-Jun-05 20:29N 31°58' E 120°24'0 0.0
2014-Jun-05 19:32N 31°58' E 120°24'0 0.0
2014-Jun-05 18:32N 31°58' E 120°24'0 0.0
2014-Jun-05 17:23N 31°58' E 120°24'0 0.1
2014-Jun-05 16:32N 31°58' E 120°24'0 0.1
2014-Jun-05 15:32N 31°58' E 120°24'0 0.0
2014-Jun-05 14:27N 31°58' E 120°24'0 0.0
2014-Jun-05 13:33N 31°58' E 120°24'0 0.0
2014-Jun-05 12:29N 31°58' E 120°24'0 0.0
2014-Jun-05 11:26N 31°58' E 120°24'0 0.0
2014-Jun-05 10:33N 31°58' E 120°24'0 0.0
2014-Jun-05 09:32N 31°58' E 120°24'0 0.0
2014-Jun-05 08:30N 31°58' E 120°24'0 0.0
2014-Jun-05 07:33N 31°58' E 120°24'0 0.0
2014-Jun-05 06:27N 31°58' E 120°24'0 0.0
2014-Jun-05 05:26N 31°58' E 120°24'0 0.0
2014-Jun-05 04:30N 31°58' E 120°24'0 0.0
2014-Jun-05 03:27N 31°58' E 120°24'0 0.0
2014-Jun-05 02:34N 31°58' E 120°24'0 0.0
2014-Jun-05 01:34N 31°58' E 120°24'4 4.2
2014-Jun-05 00:33N 32°02' E 120°27'7 7.2
2014-Jun-04 23:33N 32°00' E 120°35'8 7.8
2014-Jun-04 22:33N 32°01' E 120°44'8 7.0
2014-Jun-04 21:28N 31°57' E 120°52'9 7.9
2014-Jun-04 20:16N 31°48' E 120°56'14 7.1
2014-Jun-04 18:13N 31°41' E 121°11'4 0.6
2014-Jun-04 11:26N 31°39' E 121°15'4 4.7
2014-Jun-04 10:31N 31°36' E 121°18'7 7.4
2014-Jun-04 09:33N 31°31' E 121°24'8 7.6
2014-Jun-04 08:33N 31°25' E 121°31'8 7.7
2014-Jun-04 07:33N 31°22' E 121°38'74 2.6
2014-Jun-03 02:33N 30°45' E 122°54'  
2014-May-31 00:32N 22°40' E 120°13'0 0.1
2014-May-30 23:32N 22°40' E 120°13'0 0.0
2014-May-30 21:26N 22°40' E 120°13'0 0.0
2014-May-30 20:20N 22°40' E 120°13'0 0.0
2014-May-30 19:08N 22°40' E 120°13'0 0.0
2014-May-30 17:14N 22°40' E 120°13'0 0.2
2014-May-30 16:34N 22°40' E 120°13'0 0.2
2014-May-30 15:31N 22°40' E 120°14'0 0.0
2014-May-30 14:31N 22°40' E 120°14'0 0.0
2014-May-30 13:31N 22°40' E 120°14'0 0.0
2014-May-30 11:31N 22°40' E 120°14'0 0.1
2014-May-30 10:31N 22°40' E 120°14'1 0.7
2014-May-30 09:33N 22°40' E 120°14'5 5.0
2014-May-30 08:33N 22°36' E 120°18'0 0.0
2014-May-30 07:33N 22°36' E 120°18'0 0.0
2014-May-30 06:27N 22°36' E 120°18'0 0.0
2014-May-30 05:27N 22°36' E 120°18'0 0.0
2014-May-30 04:33N 22°36' E 120°18'0 0.0
2014-May-30 03:33N 22°36' E 120°18'0 0.0
2014-May-30 02:33N 22°36' E 120°18'0 0.0
2014-May-30 01:33N 22°36' E 120°18'0 0.0
2014-May-29 23:33N 22°36' E 120°18'0 0.0
2014-May-29 22:33N 22°36' E 120°18'0 0.0
2014-May-29 19:27N 22°36' E 120°18'0 0.0
2014-May-29 18:15N 22°36' E 120°18'0 0.0
2014-May-29 17:33N 22°36' E 120°18'0 0.0
2014-May-29 16:33N 22°36' E 120°18'0 0.0
2014-May-29 15:33N 22°36' E 120°18'0 0.0
2014-May-29 14:33N 22°36' E 120°18'0 0.0
2014-May-29 11:33N 22°36' E 120°18'0 0.0
2014-May-29 10:33N 22°36' E 120°18'0 0.0
2014-May-29 09:33N 22°36' E 120°18'0 0.0
2014-May-29 08:33N 22°36' E 120°18'0 0.0
2014-May-29 07:33N 22°36' E 120°18'0 0.0
2014-May-29 06:21N 22°36' E 120°18'0 0.0
2014-May-29 05:33N 22°36' E 120°18'0 0.0
2014-May-29 04:33N 22°36' E 120°18'  
Track history (hours):
 
Tides and Currents Weather Stations Pressure Air Temp Water Temp Dewpoint Dewpoint Depression Visibility Wind Speed Wind Dir Waves Ship Positions

M/V Vinh_hung

Last reported at 2014-Jun-08 04:27 UTC. Time now 2014-Jul-24 05:54 UTC.
Position N 29°33' E 122°48'.
Warning: this ship's position is 46 days out of date.

; draft 7.5 m.

Type: Cargo ship. MMSI: 574206000.

Date/timePositionNaut miles runAvg speedWind from/ knotsBaromVisibWave heightAir tempDewpointWater temp
2014-Jun-08 04:27N 29°33' E 122°48'20 9.9
2014-Jun-08 02:28N 29°51' E 122°57'38 9.2
2014-Jun-07 22:22N 30°29' E 123°02'21 9.0
2014-Jun-07 20:03N 30°48' E 122°54'65 8.5
2014-Jun-07 12:24N 31°18' E 121°46'7 8.3
2014-Jun-07 11:33N 31°21' E 121°39'8 7.9
2014-Jun-07 10:33N 31°25' E 121°31'8 8.3
2014-Jun-07 09:33N 31°31' E 121°23'1210.0
2014-Jun-07 08:20N 31°39' E 121°13'1211.3
2014-Jun-07 07:14N 31°46' E 121°01'1010.4
2014-Jun-07 06:17N 31°53' E 120°53'811.1
2014-Jun-07 05:33N 32°00' E 120°48'1111.4
2014-Jun-07 04:33N 32°00' E 120°34'7 7.4
2014-Jun-07 03:33N 31°58' E 120°26'1 1.1
2014-Jun-07 02:10N 31°58' E 120°24'0 0.0
2014-Jun-07 01:32N 31°58' E 120°24'0 0.0
2014-Jun-07 00:31N 31°58' E 120°24'0 0.0
2014-Jun-06 23:31N 31°58' E 120°24'0 0.0
2014-Jun-06 22:31N 31°58' E 120°24'0 0.0
2014-Jun-06 21:33N 31°58' E 120°24'0 0.0
2014-Jun-06 20:33N 31°58' E 120°24'0 0.0
2014-Jun-06 19:30N 31°58' E 120°24'0 0.0
2014-Jun-06 18:30N 31°58' E 120°24'0 0.0
2014-Jun-06 17:33N 31°58' E 120°24'0 0.0
2014-Jun-06 16:30N 31°58' E 120°24'0 0.0
2014-Jun-06 15:30N 31°58' E 120°24'0 0.0
2014-Jun-06 14:30N 31°58' E 120°24'0 0.0
2014-Jun-06 13:31N 31°58' E 120°24'0 0.0
2014-Jun-06 12:32N 31°58' E 120°24'0 0.0
2014-Jun-06 11:32N 31°58' E 120°24'0 0.0
2014-Jun-06 10:31N 31°58' E 120°24'0 0.0
2014-Jun-06 09:31N 31°58' E 120°24'0 0.0
2014-Jun-06 08:31N 31°58' E 120°24'0 0.0
2014-Jun-06 07:28N 31°58' E 120°24'0 0.0
2014-Jun-06 06:31N 31°58' E 120°24'0 0.0
2014-Jun-06 05:31N 31°58' E 120°24'0 0.0
2014-Jun-06 04:31N 31°58' E 120°24'0 0.0
2014-Jun-06 03:26N 31°58' E 120°24'0 0.0
2014-Jun-06 02:33N 31°58' E 120°24'0 0.0
2014-Jun-06 01:21N 31°58' E 120°24'0 0.0
2014-Jun-06 00:29N 31°58' E 120°24'0 0.0
2014-Jun-05 23:30N 31°58' E 120°24'0 0.0
2014-Jun-05 22:33N 31°58' E 120°24'0 0.0
2014-Jun-05 21:33N 31°58' E 120°24'0 0.0
2014-Jun-05 20:29N 31°58' E 120°24'0 0.0
2014-Jun-05 19:32N 31°58' E 120°24'0 0.0
2014-Jun-05 18:32N 31°58' E 120°24'0 0.0
2014-Jun-05 17:23N 31°58' E 120°24'0 0.1
2014-Jun-05 16:32N 31°58' E 120°24'0 0.1
2014-Jun-05 15:32N 31°58' E 120°24'0 0.0
2014-Jun-05 14:27N 31°58' E 120°24'0 0.0
2014-Jun-05 13:33N 31°58' E 120°24'0 0.0
2014-Jun-05 12:29N 31°58' E 120°24'0 0.0
2014-Jun-05 11:26N 31°58' E 120°24'0 0.0
2014-Jun-05 10:33N 31°58' E 120°24'0 0.0
2014-Jun-05 09:32N 31°58' E 120°24'0 0.0
2014-Jun-05 08:30N 31°58' E 120°24'0 0.0
2014-Jun-05 07:33N 31°58' E 120°24'0 0.0
2014-Jun-05 06:27N 31°58' E 120°24'0 0.0
2014-Jun-05 05:26N 31°58' E 120°24'0 0.0
2014-Jun-05 04:30N 31°58' E 120°24'0 0.0
2014-Jun-05 03:27N 31°58' E 120°24'0 0.0
2014-Jun-05 02:34N 31°58' E 120°24'0 0.0
2014-Jun-05 01:34N 31°58' E 120°24'4 4.2
2014-Jun-05 00:33N 32°02' E 120°27'7 7.2
2014-Jun-04 23:33N 32°00' E 120°35'8 7.8
2014-Jun-04 22:33N 32°01' E 120°44'8 7.0
2014-Jun-04 21:28N 31°57' E 120°52'9 7.9
2014-Jun-04 20:16N 31°48' E 120°56'14 7.1
2014-Jun-04 18:13N 31°41' E 121°11'4 0.6
2014-Jun-04 11:26N 31°39' E 121°15'4 4.7
2014-Jun-04 10:31N 31°36' E 121°18'7 7.4
2014-Jun-04 09:33N 31°31' E 121°24'8 7.6
2014-Jun-04 08:33N 31°25' E 121°31'8 7.7
2014-Jun-04 07:33N 31°22' E 121°38'74 2.6
2014-Jun-03 02:33N 30°45' E 122°54'  
2014-May-31 00:32N 22°40' E 120°13'0 0.1
2014-May-30 23:32N 22°40' E 120°13'0 0.0
2014-May-30 21:26N 22°40' E 120°13'0 0.0
2014-May-30 20:20N 22°40' E 120°13'0 0.0
2014-May-30 19:08N 22°40' E 120°13'0 0.0
2014-May-30 17:14N 22°40' E 120°13'0 0.2
2014-May-30 16:34N 22°40' E 120°13'0 0.2
2014-May-30 15:31N 22°40' E 120°14'0 0.0
2014-May-30 14:31N 22°40' E 120°14'0 0.0
2014-May-30 13:31N 22°40' E 120°14'0 0.0
2014-May-30 11:31N 22°40' E 120°14'0 0.1
2014-May-30 10:31N 22°40' E 120°14'1 0.7
2014-May-30 09:33N 22°40' E 120°14'5 5.0
2014-May-30 08:33N 22°36' E 120°18'0 0.0
2014-May-30 07:33N 22°36' E 120°18'0 0.0
2014-May-30 06:27N 22°36' E 120°18'0 0.0
2014-May-30 05:27N 22°36' E 120°18'0 0.0
2014-May-30 04:33N 22°36' E 120°18'0 0.0
2014-May-30 03:33N 22°36' E 120°18'0 0.0
2014-May-30 02:33N 22°36' E 120°18'0 0.0
2014-May-30 01:33N 22°36' E 120°18'0 0.0
2014-May-29 23:33N 22°36' E 120°18'0 0.0
2014-May-29 22:33N 22°36' E 120°18'0 0.0
2014-May-29 19:27N 22°36' E 120°18'0 0.0
2014-May-29 18:15N 22°36' E 120°18'0 0.0
2014-May-29 17:33N 22°36' E 120°18'0 0.0
2014-May-29 16:33N 22°36' E 120°18'0 0.0
2014-May-29 15:33N 22°36' E 120°18'0 0.0
2014-May-29 14:33N 22°36' E 120°18'0 0.0
2014-May-29 11:33N 22°36' E 120°18'0 0.0
2014-May-29 10:33N 22°36' E 120°18'0 0.0
2014-May-29 09:33N 22°36' E 120°18'0 0.0
2014-May-29 08:33N 22°36' E 120°18'0 0.0
2014-May-29 07:33N 22°36' E 120°18'0 0.0
2014-May-29 06:21N 22°36' E 120°18'0 0.0
2014-May-29 05:33N 22°36' E 120°18'0 0.0
2014-May-29 04:33N 22°36' E 120°18'  

Dump ship's entire track history